Time;durP1;ratioP1;P1;durP2;ratioP2;P2;SDS_P1;SDS_P2;PMS_P1;PMS_P2;Temp;Humidity;BMP_temperature;BMP_pressure;BME280_temperature;BME280_humidity;BME280_pressure;Samples;Min_cycle;Max_cycle;Signal;HPM_P1;HPM_P2
2021/03/20 00:01:23;;;;;;;10.23;7.93;;;1.30;99.90;;;;;;5018668;28;20038;-84
2021/03/20 00:03:49;;;;;;;10.63;7.97;;;0.80;99.90;;;;;;5017666;28;20128;-84
2021/03/20 00:06:18;;;;;;;10.02;7.82;;;0.90;99.80;;;;;;5018464;28;20030;-84
2021/03/20 00:08:45;;;;;;;11.23;7.60;;;0.90;99.90;;;;;;5017938;28;20026;-84
2021/03/20 00:11:13;;;;;;;65.25;31.55;;;1.30;99.90;;;;;;5018837;28;20496;-85
2021/03/20 00:13:40;;;;;;;20.55;12.65;;;1.00;99.90;;;;;;5019368;28;20030;-85
2021/03/20 00:16:06;;;;;;;15.35;10.07;;;0.80;99.90;;;;;;5019437;28;20022;-84
2021/03/20 00:18:32;;;;;;;11.68;8.15;;;0.80;99.90;;;;;;5019444;28;20098;-85
2021/03/20 00:20:58;;;;;;;9.73;8.10;;;0.80;99.90;;;;;;5019649;28;20030;-84
2021/03/20 00:23:24;;;;;;;12.35;8.73;;;0.80;99.90;;;;;;5018237;28;20153;-85
2021/03/20 00:25:51;;;;;;;13.60;9.80;;;0.80;99.90;;;;;;5019595;28;20044;-85
2021/03/20 00:28:22;;;;;;;13.23;9.02;;;0.90;99.90;;;;;;5018473;28;20088;-84
2021/03/20 00:30:50;;;;;;;13.75;9.85;;;0.90;99.90;;;;;;5018388;28;20050;-86
2021/03/20 00:33:16;;;;;;;12.02;8.75;;;0.90;99.90;;;;;;5018109;28;20466;-84
2021/03/20 00:35:42;;;;;;;12.38;8.82;;;0.90;99.90;;;;;;5018689;28;20042;-85
2021/03/20 00:38:08;;;;;;;10.50;8.00;;;1.10;99.90;;;;;;5017920;28;20029;-85
2021/03/20 00:40:34;;;;;;;12.02;8.25;;;0.80;99.90;;;;;;5001992;28;20470;-85
2021/03/20 00:43:00;;;;;;;10.90;8.02;;;0.70;99.90;;;;;;5021653;28;20037;-84
2021/03/20 00:45:28;;;;;;;11.95;7.97;;;0.80;99.90;;;;;;5022366;28;20021;-85
2021/03/20 00:48:02;;;;;;;12.85;8.82;;;0.80;99.90;;;;;;5023540;28;20587;-84
2021/03/20 00:50:27;;;;;;;10.63;8.23;;;0.90;99.90;;;;;;5022386;28;20018;-85
2021/03/20 00:52:53;;;;;;;10.98;8.55;;;0.70;99.90;;;;;;5022696;28;20057;-84
2021/03/20 00:55:19;;;;;;;11.70;8.98;;;0.70;99.90;;;;;;5021868;28;20108;-84
2021/03/20 00:57:44;;;;;;;12.88;9.10;;;0.60;99.90;;;;;;5020658;28;20028;-84
2021/03/20 01:00:15;;;;;;;11.68;8.75;;;0.70;99.90;;;;;;5021495;28;20029;-85
2021/03/20 01:02:41;;;;;;;11.00;8.65;;;0.70;99.90;;;;;;5020715;28;20024;-84
2021/03/20 01:05:08;;;;;;;11.52;8.57;;;0.80;99.90;;;;;;5019415;28;20124;-84
2021/03/20 01:07:33;;;;;;;10.32;7.65;;;0.70;99.90;;;;;;5020711;28;20049;-85
2021/03/20 01:09:59;;;;;;;10.13;7.78;;;0.80;99.90;;;;;;5021246;28;20030;-84
2021/03/20 01:12:25;;;;;;;12.88;7.90;;;0.70;99.90;;;;;;5020854;28;20034;-85
2021/03/20 01:14:51;;;;;;;11.15;8.30;;;0.60;99.90;;;;;;5020380;28;20032;-84
2021/03/20 01:17:17;;;;;;;9.93;7.70;;;0.70;99.90;;;;;;5020911;28;20032;-84
2021/03/20 01:19:43;;;;;;;12.50;9.00;;;0.70;99.90;;;;;;5019540;28;20121;-85
2021/03/20 01:22:09;;;;;;;9.18;7.65;;;0.70;99.90;;;;;;5020886;28;20052;-84
2021/03/20 01:24:34;;;;;;;10.15;8.20;;;0.60;99.90;;;;;;5020119;28;20444;-84
2021/03/20 01:27:00;;;;;;;10.20;7.43;;;0.60;99.90;;;;;;5019974;28;20032;-85
2021/03/20 01:29:26;;;;;;;11.27;8.43;;;0.50;99.90;;;;;;5018819;28;20033;-85
2021/03/20 01:31:53;;;;;;;11.55;8.25;;;0.60;99.90;;;;;;5018810;28;20112;-84
2021/03/20 01:34:19;;;;;;;9.88;7.50;;;0.60;99.90;;;;;;5019115;28;20030;-85
2021/03/20 01:36:45;;;;;;;10.32;7.82;;;0.70;99.90;;;;;;5018733;28;20029;-86
2021/03/20 01:39:11;;;;;;;11.40;8.00;;;0.60;99.90;;;;;;5018503;28;20037;-85
2021/03/20 01:41:41;;;;;;;10.60;7.78;;;0.50;99.90;;;;;;5017977;28;20035;-85
2021/03/20 01:44:07;;;;;;;11.93;8.30;;;0.60;99.90;;;;;;5017715;28;20044;-85
2021/03/20 01:46:55;;;;;;;10.85;7.95;;;0.60;99.90;;;;;;5018147;28;20062;-84
2021/03/20 01:49:37;;;;;;;11.68;9.20;;;0.50;99.90;;;;;;5018193;28;20112;-84
2021/03/20 01:52:02;;;;;;;10.77;7.63;;;0.50;99.90;;;;;;5018027;28;20054;-85
2021/03/20 01:54:38;;;;;;;10.65;8.07;;;0.40;99.90;;;;;;5016629;28;20372;-85
2021/03/20 01:57:04;;;;;;;11.23;7.57;;;0.50;99.90;;;;;;5018163;28;20018;-85
2021/03/20 01:59:30;;;;;;;11.32;7.70;;;0.50;99.90;;;;;;5018135;28;20097;-84
2021/03/20 02:01:56;;;;;;;12.48;7.40;;;0.60;99.90;;;;;;5018817;28;20057;-84
2021/03/20 02:04:22;;;;;;;9.23;7.35;;;0.50;99.90;;;;;;5018288;28;20382;-85
2021/03/20 02:06:48;;;;;;;10.77;7.07;;;0.50;99.90;;;;;;5018918;28;20068;-84
2021/03/20 02:09:14;;;;;;;10.23;7.85;;;0.50;99.90;;;;;;5018422;28;20048;-84
2021/03/20 02:11:44;;;;;;;11.48;8.00;;;0.50;99.90;;;;;;5019311;28;20084;-85
2021/03/20 02:14:33;;;;;;;11.60;7.60;;;0.50;99.90;;;;;;5019074;28;20121;-84
2021/03/20 02:17:07;;;;;;;10.95;8.07;;;0.50;99.90;;;;;;5009067;28;20038;-85
2021/03/20 02:19:42;;;;;;;10.98;8.43;;;0.50;99.90;;;;;;5018014;28;20032;-85
2021/03/20 02:22:19;;;;;;;10.52;7.65;;;0.50;99.90;;;;;;5018430;28;20026;-84
2021/03/20 02:25:24;;;;;;;12.73;9.65;;;0.60;99.90;;;;;;5018200;28;20056;-85
2021/03/20 02:27:59;;;;;;;11.73;9.27;;;0.60;99.90;;;;;;5018369;28;20160;-84
2021/03/20 02:30:57;;;;;;;12.38;9.50;;;0.70;99.90;;;;;;5017848;28;20021;-84
2021/03/20 02:33:42;;;;;;;12.32;8.88;;;0.60;99.90;;;;;;5009531;28;20041;-84
2021/03/20 02:36:22;;;;;;;11.93;9.23;;;0.60;99.90;;;;;;5018509;28;20096;-85
2021/03/20 02:38:56;;;;;;;11.38;9.13;;;0.60;99.90;;;;;;5018063;28;20110;-86
2021/03/20 02:41:36;;;;;;;10.52;8.38;;;1.00;99.90;;;;;;5017961;28;20084;-85
2021/03/20 02:44:07;;;;;;;13.80;10.55;;;0.50;99.90;;;;;;5018410;28;20061;-85
2021/03/20 02:46:41;;;;;;;12.10;9.80;;;0.60;99.90;;;;;;5017669;28;20033;-85
2021/03/20 02:49:10;;;;;;;13.35;10.07;;;0.40;99.90;;;;;;5017484;28;20022;-85
2021/03/20 02:51:45;;;;;;;12.18;9.90;;;0.70;99.90;;;;;;5017527;28;20045;-85
2021/03/20 02:54:25;;;;;;;13.15;9.73;;;0.40;99.90;;;;;;5018576;28;20018;-87
2021/03/20 02:56:54;;;;;;;13.35;10.38;;;0.40;99.90;;;;;;5017336;28;20088;-85
2021/03/20 02:59:23;;;;;;;13.45;9.88;;;0.40;99.90;;;;;;5018391;28;20033;-85
2021/03/20 03:01:51;;;;;;;12.40;9.02;;;0.50;99.90;;;;;;5017607;28;20038;-85
2021/03/20 03:04:21;;;;;;;13.52;9.88;;;0.40;99.90;;;;;;5017849;28;20041;-85
2021/03/20 03:07:01;;;;;;;13.45;9.82;;;0.50;99.90;;;;;;5017702;28;20056;-84
2021/03/20 03:09:38;;;;;;;13.57;10.45;;;0.40;99.90;;;;;;5017837;28;20101;-86
2021/03/20 03:12:37;;;;;;;14.77;10.27;;;0.40;99.90;;;;;;5017280;28;20026;-85
2021/03/20 03:15:10;;;;;;;13.70;10.18;;;0.40;99.90;;;;;;5015030;28;20073;-84
2021/03/20 03:17:39;;;;;;;13.52;10.32;;;0.40;99.90;;;;;;5018651;28;20030;-84
2021/03/20 03:20:07;;;;;;;12.05;9.68;;;0.40;99.90;;;;;;5018722;28;20026;-84
2021/03/20 03:22:39;;;;;;;14.02;10.18;;;0.40;99.90;;;;;;5017953;28;20172;-84
2021/03/20 03:25:09;;;;;;;13.45;9.95;;;0.40;99.90;;;;;;5016942;28;20034;-85
2021/03/20 03:27:38;;;;;;;16.52;9.95;;;0.40;99.90;;;;;;5017559;28;20032;-84
2021/03/20 03:30:11;;;;;;;14.30;9.32;;;0.40;99.30;;;;;;5017222;28;20053;-84
2021/03/20 03:32:40;;;;;;;13.77;10.38;;;0.40;98.80;;;;;;5017297;28;20459;-84
2021/03/20 03:35:13;;;;;;;14.63;10.27;;;0.30;98.70;;;;;;5017409;28;20026;-85
2021/03/20 03:37:44;;;;;;;14.48;10.57;;;0.30;98.50;;;;;;5016840;28;20026;-84
2021/03/20 03:40:15;;;;;;;14.70;10.52;;;0.30;98.60;;;;;;5017462;28;20057;-85
2021/03/20 03:42:41;;;;;;;13.75;9.60;;;0.30;97.30;;;;;;5016379;28;20034;-84
2021/03/20 03:45:10;;;;;;;14.40;10.23;;;0.40;97.60;;;;;;5017111;28;20059;-83
2021/03/20 03:47:36;;;;;;;15.27;9.68;;;0.20;97.50;;;;;;5016371;28;20030;-84
2021/03/20 03:50:12;;;;;;;15.85;10.70;;;0.20;97.80;;;;;;5016776;28;20033;-85
2021/03/20 03:52:38;;;;;;;15.98;9.98;;;0.20;97.50;;;;;;5016985;28;20079;-84
2021/03/20 03:55:06;;;;;;;14.75;9.98;;;0.10;97.50;;;;;;5016863;28;20023;-84
2021/03/20 03:57:50;;;;;;;17.10;10.50;;;0.20;96.80;;;;;;5016804;28;20026;-85
2021/03/20 04:00:34;;;;;;;14.70;11.13;;;0.30;96.80;;;;;;5016470;28;20026;-85
2021/03/20 04:03:20;;;;;;;16.20;10.57;;;0.10;96.90;;;;;;5016507;28;20049;-84
2021/03/20 04:06:10;;;;;;;15.60;11.18;;;0.30;97.10;;;;;;5016495;28;20030;-84
2021/03/20 04:09:11;;;;;;;16.75;10.50;;;0.10;97.30;;;;;;5016341;28;20065;-84
2021/03/20 04:11:49;;;;;;;14.93;11.02;;;0.10;97.40;;;;;;5016522;28;20037;-85
2021/03/20 04:14:16;;;;;;;16.08;11.27;;;0.20;97.50;;;;;;5015878;28;20479;-85
2021/03/20 04:17:14;;;;;;;17.75;12.52;;;0.00;97.70;;;;;;5016328;28;20029;-83
2021/03/20 04:19:46;;;;;;;17.70;13.45;;;0.00;97.50;;;;;;5019798;28;20031;-85
2021/03/20 04:22:21;;;;;;;16.35;11.90;;;0.30;97.60;;;;;;5020339;28;20022;-83
2021/03/20 04:24:50;;;;;;;14.82;9.98;;;0.10;97.30;;;;;;5020105;28;20030;-85
2021/03/20 04:27:20;;;;;;;14.65;10.43;;;0.10;97.40;;;;;;5020308;28;20026;-84
2021/03/20 04:30:10;;;;;;;13.50;10.15;;;0.00;97.40;;;;;;5020546;28;20030;-85
2021/03/20 04:32:39;;;;;;;15.15;10.50;;;0.00;97.10;;;;;;5018799;28;20045;-84
2021/03/20 04:35:34;;;;;;;13.55;10.02;;;0.00;97.10;;;;;;5019541;28;20033;-84
2021/03/20 04:38:01;;;;;;;14.93;10.65;;;0.00;97.30;;;;;;5019392;28;20108;-84
2021/03/20 04:40:51;;;;;;;14.45;9.95;;;0.00;97.30;;;;;;5019377;28;20030;-83
2021/03/20 04:43:20;;;;;;;13.10;9.45;;;0.10;97.20;;;;;;5019440;28;20061;-84
2021/03/20 04:46:06;;;;;;;15.43;10.23;;;0.20;96.90;;;;;;5018952;28;20385;-86
2021/03/20 04:48:36;;;;;;;;;;;0.00;96.90;;;;;;5019785;28;20053;-84
2021/03/20 04:51:24;;;;;;;15.88;10.00;;;0.10;97.00;;;;;;5035707;28;19905;-84
2021/03/20 04:54:02;;;;;;;13.90;9.63;;;0.00;97.20;;;;;;5019012;28;20486;-84
2021/03/20 04:56:30;;;;;;;15.18;9.88;;;-0.10;97.00;;;;;;5018857;28;20037;-83
2021/03/20 04:59:01;;;;;;;14.63;10.70;;;-0.10;97.10;;;;;;5018930;28;20137;-84
2021/03/20 05:01:37;;;;;;;15.82;9.80;;;0.20;97.10;;;;;;5018759;28;20034;-83
2021/03/20 05:04:09;;;;;;;15.05;9.95;;;0.00;97.00;;;;;;5018630;28;20626;-85
2021/03/20 05:06:36;;;;;;;12.95;9.60;;;-0.10;97.00;;;;;;5018670;28;20026;-86
2021/03/20 05:09:05;;;;;;;13.82;9.90;;;0.20;97.10;;;;;;5018293;28;20052;-83
2021/03/20 05:11:56;;;;;;;14.35;9.57;;;-0.10;97.00;;;;;;5018943;28;20036;-85
2021/03/20 05:14:28;;;;;;;13.85;9.55;;;0.00;97.10;;;;;;5018582;28;20026;-85
2021/03/20 05:17:00;;;;;;;14.57;9.50;;;0.00;96.90;;;;;;5018286;28;20036;-84
2021/03/20 05:19:28;;;;;;;19.63;12.30;;;-0.10;97.00;;;;;;5018312;28;20034;-84
2021/03/20 05:21:55;;;;;;;13.50;9.77;;;0.00;97.10;;;;;;5018130;28;20033;-84
2021/03/20 05:24:32;;;;;;;16.70;10.75;;;-0.10;97.30;;;;;;5019525;28;20042;-85
2021/03/20 05:26:59;;;;;;;16.60;11.10;;;0.00;97.20;;;;;;5018121;28;20111;-85
2021/03/20 05:29:27;;;;;;;16.25;11.10;;;0.20;97.20;;;;;;5017380;28;20889;-86
2021/03/20 05:31:53;;;;;;;16.58;10.82;;;0.10;97.00;;;;;;5017926;28;20124;-85
2021/03/20 05:34:31;;;;;;;15.27;10.30;;;0.20;97.10;;;;;;5019326;28;20033;-82
2021/03/20 05:36:57;;;;;;;17.15;11.02;;;0.30;96.80;;;;;;5020816;28;20057;-83
2021/03/20 05:39:23;;;;;;;12.68;9.35;;;0.30;96.60;;;;;;5017591;28;20061;-83
2021/03/20 05:42:00;;;;;;;14.65;9.13;;;1.40;99.90;;;;;;5022319;28;20033;-84
2021/03/20 05:44:46;;;;;;;14.18;9.70;;;1.30;95.70;;;;;;5018376;28;20091;-84
2021/03/20 05:47:37;;;;;;;14.57;9.02;;;1.20;95.10;;;;;;5021935;28;20026;-85
2021/03/20 05:50:40;;;;;;;14.38;9.15;;;1.10;94.00;;;;;;5023721;28;20473;-85
2021/03/20 05:53:23;;;;;;;12.52;8.43;;;1.10;93.90;;;;;;5017844;28;20058;-84
2021/03/20 05:55:57;;;;;;;12.77;9.00;;;1.00;93.90;;;;;;5018719;28;20026;-85
2021/03/20 05:59:00;;;;;;;16.27;8.35;;;1.10;94.10;;;;;;5017972;28;20034;-84
2021/03/20 06:02:04;;;;;;;14.48;9.07;;;1.10;93.30;;;;;;5018662;28;20379;-85
2021/03/20 06:04:39;;;;;;;13.23;7.95;;;1.10;92.70;;;;;;5017031;28;20206;-85
2021/03/20 06:07:18;;;;;;;12.63;8.50;;;1.20;92.90;;;;;;5018622;28;20029;-85
2021/03/20 06:09:47;;;;;;;11.15;7.63;;;1.20;92.40;;;;;;5018512;28;20483;-84
2021/03/20 06:12:34;;;;;;;13.15;8.27;;;1.30;92.20;;;;;;5018026;28;20022;-84
2021/03/20 06:15:28;;;;;;;12.82;8.07;;;1.40;92.30;;;;;;5017727;28;20032;-87
2021/03/20 06:18:02;;;;;;;12.48;7.82;;;1.50;91.20;;;;;;5018435;28;20061;-84
2021/03/20 06:20:58;;;;;;;11.45;7.20;;;1.40;91.10;;;;;;5017591;28;20022;-84
2021/03/20 06:23:43;;;;;;;12.23;8.23;;;1.50;90.20;;;;;;5017147;28;20110;-85
2021/03/20 06:26:25;;;;;;;13.10;8.00;;;1.50;91.20;;;;;;5017797;28;20184;-83
2021/03/20 06:28:56;;;;;;;12.75;7.30;;;1.60;91.10;;;;;;5017627;28;20037;-85
2021/03/20 06:31:39;;;;;;;13.85;8.80;;;1.60;90.20;;;;;;5017450;28;20033;-84
2021/03/20 06:34:14;;;;;;;15.10;8.13;;;1.60;90.70;;;;;;5017618;28;20061;-86
2021/03/20 06:36:42;;;;;;;;;;;1.80;90.50;;;;;;5027342;28;20138;-85
2021/03/20 06:39:47;;;;;;;11.77;7.95;;;1.80;90.70;;;;;;5035316;28;19894;-84
2021/03/20 06:42:54;;;;;;;13.63;9.18;;;2.00;90.10;;;;;;5036806;28;20037;-84
2021/03/20 06:45:32;;;;;;;14.93;9.00;;;1.70;90.70;;;;;;5033503;28;20041;-84
2021/03/20 06:48:00;;;;;;;12.25;8.60;;;1.70;91.30;;;;;;5031193;28;20489;-84
2021/03/20 06:50:38;;;;;;;12.55;9.23;;;2.20;91.90;;;;;;5033429;28;20089;-85
2021/03/20 06:53:07;;;;;;;12.32;8.65;;;1.90;90.60;;;;;;5031325;28;20052;-84
2021/03/20 06:55:35;;;;;;;14.02;9.52;;;1.90;89.20;;;;;;5033531;28;20037;-84
2021/03/20 06:58:08;;;;;;;15.95;9.40;;;2.10;89.20;;;;;;5032020;28;20025;-85
2021/03/20 07:00:35;;;;;;;22.05;10.95;;;2.00;89.20;;;;;;5030937;28;20033;-86
2021/03/20 07:03:13;;;;;;;14.48;10.57;;;2.10;89.60;;;;;;4998939;28;20101;-85
2021/03/20 07:09:19;;;;;;;14.32;9.57;;;2.20;90.20;;;;;;5043265;22;20054;-85
2021/03/20 07:12:28;;;;;;;14.63;9.38;;;2.20;86.40;;;;;;5050794;22;20049;-85
2021/03/20 07:15:17;;;;;;;14.25;9.73;;;2.60;89.80;;;;;;5030562;28;20061;-85
2021/03/20 07:17:43;;;;;;;12.00;8.55;;;2.60;84.10;;;;;;5029034;28;20056;-86
2021/03/20 07:20:40;;;;;;;12.50;8.95;;;2.70;83.70;;;;;;5030551;28;20041;-84
2021/03/20 07:23:18;;;;;;;;;;;2.50;84.10;;;;;;5029952;28;20440;-83
2021/03/20 07:26:13;;;;;;;10.93;7.80;;;2.60;82.80;;;;;;5027326;28;19912;-85
2021/03/20 07:28:51;;;;;;;11.70;7.97;;;2.60;79.30;;;;;;5031241;28;20026;-84
2021/03/20 07:31:18;;;;;;;12.27;7.72;;;2.70;82.20;;;;;;5029111;28;20105;-84
2021/03/20 07:33:48;;;;;;;12.57;8.40;;;2.80;82.20;;;;;;5157006;23;20080;-84
2021/03/20 07:36:35;;;;;;;13.70;8.18;;;3.30;91.50;;;;;;5045566;28;20108;-85
2021/03/20 07:39:57;;;;;;;12.45;8.60;;;4.60;85.90;;;;;;5052620;28;20025;-84
2021/03/20 07:42:39;;;;;;;10.80;7.85;;;4.70;71.00;;;;;;5054785;28;20081;-85
2021/03/20 07:45:20;;;;;;;11.82;8.75;;;4.00;69.80;;;;;;5032436;28;20059;-84
2021/03/20 07:48:30;;;;;;;12.25;8.75;;;3.60;73.30;;;;;;5054362;28;20009;-84
2021/03/20 07:51:12;;;;;;;14.82;8.75;;;3.60;75.00;;;;;;5027197;28;20038;-85
2021/03/20 07:53:50;;;;;;;11.25;8.40;;;3.50;73.90;;;;;;5012624;28;20033;-85
2021/03/20 07:56:28;;;;;;;12.40;8.38;;;3.40;74.50;;;;;;5042125;28;20185;-84
2021/03/20 07:59:05;;;;;;;13.35;8.73;;;3.50;74.40;;;;;;5040566;28;20460;-85
2021/03/20 08:01:34;;;;;;;10.80;8.02;;;3.60;74.90;;;;;;5039833;28;20025;-84
2021/03/20 08:04:09;;;;;;;13.38;8.18;;;3.50;73.90;;;;;;5038960;28;20065;-84
2021/03/20 08:06:35;;;;;;;15.32;11.52;;;3.60;73.20;;;;;;5038554;28;20022;-84
2021/03/20 08:09:26;;;;;;;11.05;8.20;;;3.60;73.20;;;;;;5038710;28;20041;-84
2021/03/20 08:11:57;;;;;;;10.40;7.25;;;3.60;71.60;;;;;;5034072;28;20026;-84
2021/03/20 08:14:47;;;;;;;12.32;8.45;;;3.80;72.10;;;;;;5038819;28;20026;-85
2021/03/20 08:20:06;;;;;;;11.02;8.07;;;4.00;70.30;;;;;;5106934;23;20044;-85
2021/03/20 08:23:54;;;;;;;9.52;6.95;;;3.80;71.30;;;;;;5443581;22;20061;-81
2021/03/20 08:27:32;;;;;;;10.15;7.40;;;4.10;68.90;;;;;;5086450;23;20068;-84
2021/03/20 08:30:36;;;;;;;10.32;7.38;;;4.10;69.00;;;;;;5016259;28;20053;-85
2021/03/20 08:33:51;;;;;;;10.18;6.20;;;4.10;68.40;;;;;;5227586;22;20048;-85
2021/03/20 08:40:14;;;;;;;7.63;5.72;;;3.90;66.30;;;;;;5000021;28;20054;-84
2021/03/20 08:43:10;;;;;;;10.40;6.97;;;3.80;66.20;;;;;;5082359;23;20050;-83
2021/03/20 08:45:54;;;;;;;11.27;6.88;;;3.50;68.60;;;;;;4979900;28;20034;-84
2021/03/20 08:48:48;;;;;;;11.05;7.43;;;4.20;67.70;;;;;;4995143;28;20022;-81
2021/03/20 08:51:29;;;;;;;10.93;7.28;;;4.00;65.40;;;;;;4996457;28;20046;-82
2021/03/20 08:54:26;;;;;;;12.43;8.75;;;3.30;67.80;;;;;;4996057;28;20081;-82
2021/03/20 08:57:05;;;;;;;14.57;10.40;;;3.10;75.10;;;;;;4999653;28;20543;-82
2021/03/20 08:59:55;;;;;;;16.45;10.63;;;2.90;80.80;;;;;;4998172;28;20030;-80
2021/03/20 09:02:23;;;;;;;15.70;10.68;;;2.90;84.10;;;;;;4998246;28;20377;-82
2021/03/20 09:04:52;;;;;;;16.73;10.50;;;2.90;84.50;;;;;;4998109;28;20038;-82
2021/03/20 09:07:34;;;;;;;15.55;10.32;;;2.80;81.60;;;;;;4999126;28;20022;-84
2021/03/20 09:10:01;;;;;;;11.93;9.00;;;2.60;82.10;;;;;;5001343;28;20553;-82
2021/03/20 09:12:33;;;;;;;12.27;9.00;;;2.50;85.50;;;;;;4999864;28;20046;-83
2021/03/20 09:14:59;;;;;;;12.65;9.07;;;2.50;86.70;;;;;;5000672;28;20062;-83
2021/03/20 09:17:36;;;;;;;14.15;9.80;;;2.50;88.00;;;;;;4997993;28;20397;-83
2021/03/20 09:20:23;;;;;;;13.93;9.85;;;2.70;89.30;;;;;;4999885;28;20031;-84
2021/03/20 09:22:50;;;;;;;13.05;9.73;;;2.60;91.00;;;;;;5009367;28;20031;-84
2021/03/20 09:25:19;;;;;;;11.95;10.02;;;2.40;88.00;;;;;;5008305;28;20040;-83
2021/03/20 09:28:00;;;;;;;11.15;8.52;;;2.60;90.30;;;;;;5008881;28;20027;-84
2021/03/20 09:30:43;;;;;;;9.93;7.68;;;2.60;83.40;;;;;;5007018;28;20033;-85
2021/03/20 09:33:29;;;;;;;11.13;7.40;;;2.60;79.70;;;;;;5002105;28;20022;-83
2021/03/20 09:36:05;;;;;;;;;;;3.30;75.90;;;;;;5006709;28;20058;-83
2021/03/20 09:38:34;;;;;;;7.53;3.83;;;2.70;69.60;;;;;;5000581;28;19906;-84
2021/03/20 09:41:12;;;;;;;6.03;4.45;;;2.90;68.90;;;;;;4997732;28;20084;-84
2021/03/20 09:43:45;;;;;;;6.10;4.72;;;2.60;69.80;;;;;;5001868;28;20050;-84
2021/03/20 09:46:29;;;;;;;8.50;4.78;;;2.60;69.20;;;;;;4998529;28;20041;-81
2021/03/20 09:48:55;;;;;;;6.47;4.15;;;2.60;66.00;;;;;;4996002;28;20125;-79
2021/03/20 09:51:49;;;;;;;6.95;4.43;;;2.60;65.80;;;;;;4994447;28;20461;-79
2021/03/20 09:54:24;;;;;;;5.85;4.20;;;2.50;66.90;;;;;;4994179;28;20096;-79
2021/03/20 09:56:51;;;;;;;10.48;5.00;;;2.60;66.90;;;;;;4994080;28;20030;-79
2021/03/20 09:59:32;;;;;;;12.10;6.85;;;2.50;66.90;;;;;;4995412;28;20026;-83
2021/03/20 10:02:03;;;;;;;13.15;7.15;;;2.60;66.20;;;;;;4994369;28;20029;-78
2021/03/20 10:04:57;;;;;;;31.40;14.10;;;2.60;64.40;;;;;;4994028;28;20042;-80
2021/03/20 10:07:26;;;;;;;31.05;13.30;;;2.60;63.70;;;;;;4995259;28;20069;-79
2021/03/20 10:10:07;;;;;;;40.45;16.00;;;2.50;62.10;;;;;;4994137;28;20038;-77
2021/03/20 10:12:45;;;;;;;119.38;40.35;;;2.40;63.10;;;;;;4993520;28;20030;-78
2021/03/20 10:15:14;;;;;;;68.93;25.52;;;2.30;63.20;;;;;;4993087;28;20026;-80
2021/03/20 10:18:07;;;;;;;6.68;3.97;;;2.40;63.90;;;;;;4995355;28;20034;-79
2021/03/20 10:20:45;;;;;;;74.20;30.20;;;2.30;66.10;;;;;;4995201;28;20097;-78
2021/03/20 10:23:25;;;;;;;12.40;8.20;;;2.20;64.50;;;;;;4993920;28;20089;-80
2021/03/20 10:25:54;;;;;;;15.52;9.95;;;2.20;63.90;;;;;;4995221;28;20045;-81
2021/03/20 10:28:29;;;;;;;40.17;21.55;;;2.20;64.20;;;;;;4994832;28;20022;-80
2021/03/20 10:31:04;;;;;;;6.43;3.80;;;2.20;64.70;;;;;;4994088;28;20037;-78
2021/03/20 10:33:37;;;;;;;11.32;5.38;;;2.30;64.80;;;;;;4994061;28;20172;-80
2021/03/20 10:36:10;;;;;;;5.22;3.28;;;2.50;64.80;;;;;;4995772;28;20088;-82
2021/03/20 10:38:37;;;;;;;8.18;3.80;;;2.80;65.10;;;;;;4994788;28;20667;-78
2021/03/20 10:41:34;;;;;;;7.65;3.88;;;3.00;62.80;;;;;;4994135;28;20482;-81
2021/03/20 10:44:15;;;;;;;58.75;19.45;;;3.30;60.30;;;;;;4993093;28;20050;-78
2021/03/20 10:46:41;;;;;;;69.55;21.25;;;3.20;55.40;;;;;;4993563;28;20053;-80
2021/03/20 10:49:21;;;;;;;5.32;3.85;;;3.30;56.20;;;;;;4993710;28;20022;-80
2021/03/20 10:51:50;;;;;;;6.93;3.72;;;3.50;56.70;;;;;;4993900;28;20029;-82
2021/03/20 10:54:23;;;;;;;4.80;3.63;;;3.50;56.00;;;;;;4995173;28;20041;-81
2021/03/20 10:56:51;;;;;;;10.32;4.95;;;3.50;55.50;;;;;;4993290;28;20033;-80
2021/03/20 10:59:37;;;;;;;27.40;10.25;;;3.80;54.70;;;;;;4993625;28;20034;-81
2021/03/20 11:02:33;;;;;;;5.55;2.42;;;3.80;55.60;;;;;;4993702;28;20022;-80
2021/03/20 11:05:32;;;;;;;6.18;3.33;;;3.60;56.10;;;;;;4993029;28;20034;-78
2021/03/20 11:08:20;;;;;;;5.28;3.58;;;3.60;56.50;;;;;;4993050;28;20117;-80
2021/03/20 11:10:52;;;;;;;4.90;3.58;;;3.70;56.40;;;;;;4994069;28;20038;-81
2021/03/20 11:13:17;;;;;;;5.85;3.53;;;3.60;56.50;;;;;;4994279;28;20045;-82
2021/03/20 11:15:48;;;;;;;5.93;4.78;;;3.60;57.30;;;;;;4993523;28;20470;-80
2021/03/20 11:18:29;;;;;;;5.68;3.08;;;3.30;56.00;;;;;;4994151;28;20086;-80
2021/03/20 11:20:55;;;;;;;6.53;4.15;;;2.90;54.80;;;;;;4994743;28;20064;-81
2021/03/20 11:23:35;;;;;;;7.20;4.38;;;2.70;55.20;;;;;;4994321;28;20386;-82
2021/03/20 11:26:23;;;;;;;57.72;28.85;;;2.60;56.40;;;;;;4994351;28;20031;-78
2021/03/20 11:28:50;;;;;;;37.88;18.60;;;2.60;57.10;;;;;;4993637;28;20084;-81
2021/03/20 11:31:18;;;;;;;6.60;3.47;;;2.70;58.10;;;;;;4994600;28;20026;-79
2021/03/20 11:33:45;;;;;;;4.47;2.85;;;2.80;58.10;;;;;;4992375;28;20390;-82
2021/03/20 11:36:17;;;;;;;4.35;3.03;;;2.90;57.60;;;;;;4993389;28;20038;-79
2021/03/20 11:38:43;;;;;;;4.97;3.40;;;3.00;56.90;;;;;;4993860;28;20022;-79
2021/03/20 11:41:12;;;;;;;6.72;4.13;;;2.90;57.30;;;;;;4992657;28;20026;-77
2021/03/20 11:43:44;;;;;;;19.33;9.90;;;3.10;58.40;;;;;;5008598;28;20042;-77
2021/03/20 11:46:27;;;;;;;5.30;2.88;;;3.30;57.50;;;;;;5004712;28;20390;-78
2021/03/20 11:48:53;;;;;;;10.10;5.25;;;3.00;56.40;;;;;;5012822;28;20020;-79
2021/03/20 11:51:31;;;;;;;5.35;2.80;;;2.90;57.60;;;;;;5006588;28;20034;-77
2021/03/20 11:54:05;;;;;;;5.45;2.67;;;3.30;56.80;;;;;;5012778;28;20026;-77
2021/03/20 11:56:38;;;;;;;3.85;2.60;;;3.10;57.40;;;;;;5012341;28;20022;-78
2021/03/20 11:59:41;;;;;;;3.38;2.67;;;2.90;57.10;;;;;;5004350;28;20017;-77
2021/03/20 12:02:25;;;;;;;3.67;2.30;;;2.80;57.10;;;;;;5011101;28;20037;-78
2021/03/20 12:05:23;;;;;;;3.67;2.38;;;2.80;56.30;;;;;;5011147;28;20188;-77
2021/03/20 12:07:50;;;;;;;4.20;2.80;;;2.90;55.80;;;;;;5012430;28;20026;-75
2021/03/20 12:10:24;;;;;;;3.78;2.17;;;3.00;55.00;;;;;;5005585;28;20449;-79
2021/03/20 12:12:56;;;;;;;4.73;2.90;;;3.20;55.40;;;;;;5011219;28;20060;-75
2021/03/20 12:15:31;;;;;;;4.55;2.28;;;3.30;54.90;;;;;;5006344;28;20627;-77
2021/03/20 12:18:01;;;;;;;3.65;2.33;;;3.30;53.70;;;;;;5012207;28;20045;-79
2021/03/20 12:20:35;;;;;;;4.60;2.28;;;3.20;52.00;;;;;;5006987;28;20580;-77
2021/03/20 12:23:11;;;;;;;4.68;2.60;;;3.00;53.20;;;;;;5012261;28;20041;-79
2021/03/20 12:25:53;;;;;;;6.82;2.20;;;3.20;53.90;;;;;;5012184;28;20812;-79
2021/03/20 12:28:36;;;;;;;8.15;2.42;;;3.40;53.50;;;;;;5012155;28;20033;-79
2021/03/20 12:31:07;;;;;;;2.80;1.90;;;3.30;52.60;;;;;;4984202;28;20030;-79
2021/03/20 12:33:58;;;;;;;3.67;2.20;;;3.20;52.40;;;;;;4991743;28;20521;-80
2021/03/20 12:36:29;;;;;;;4.28;2.40;;;3.30;53.70;;;;;;5006898;28;20131;-80
2021/03/20 12:38:55;;;;;;;5.18;2.40;;;3.60;53.20;;;;;;5013078;28;20477;-81
2021/03/20 12:41:22;;;;;;;3.90;2.45;;;4.50;50.60;;;;;;5014017;28;20099;-81
2021/03/20 12:44:07;;;;;;;6.50;3.40;;;4.40;50.30;;;;;;5013624;28;20061;-80
2021/03/20 12:46:34;;;;;;;3.72;2.40;;;4.40;52.30;;;;;;5010940;28;20128;-79
2021/03/20 12:48:59;;;;;;;4.00;2.00;;;4.10;49.50;;;;;;5006763;28;20025;-80
2021/03/20 12:51:25;;;;;;;3.55;2.25;;;3.80;50.90;;;;;;5014217;28;20389;-80
2021/03/20 12:53:51;;;;;;;3.92;2.42;;;3.50;50.90;;;;;;5014027;28;20026;-79
2021/03/20 12:56:18;;;;;;;3.10;1.95;;;3.60;51.60;;;;;;5008716;28;20037;-80
2021/03/20 12:58:44;;;;;;;3.60;2.15;;;3.70;52.20;;;;;;5014176;28;20501;-81
2021/03/20 13:01:09;;;;;;;3.08;1.80;;;4.10;52.30;;;;;;5007665;28;20026;-78
2021/03/20 13:03:35;;;;;;;4.00;3.20;;;4.10;50.00;;;;;;5013841;28;20045;-80
2021/03/20 13:06:02;;;;;;;4.18;2.17;;;4.00;50.80;;;;;;5006493;28;20073;-79
2021/03/20 13:08:28;;;;;;;4.25;2.42;;;3.60;52.20;;;;;;5013517;28;20343;-80
2021/03/20 13:10:54;;;;;;;3.10;2.20;;;3.40;53.70;;;;;;5013847;28;20465;-79
2021/03/20 13:13:20;;;;;;;3.10;1.92;;;3.30;51.20;;;;;;5008840;28;20037;-80
2021/03/20 13:15:46;;;;;;;3.17;1.85;;;3.40;52.70;;;;;;5013687;28;20026;-81
2021/03/20 13:18:12;;;;;;;4.00;3.10;;;3.40;51.10;;;;;;5008030;28;20073;-80
2021/03/20 13:20:38;;;;;;;10.77;7.05;;;3.40;52.90;;;;;;5013661;28;20049;-79
2021/03/20 13:23:04;;;;;;;9.10;5.57;;;3.40;49.50;;;;;;5006565;28;20484;-79
2021/03/20 13:25:33;;;;;;;5.45;2.83;;;3.30;50.00;;;;;;5013770;28;20034;-79
2021/03/20 13:27:59;;;;;;;3.47;1.48;;;3.30;51.50;;;;;;5005918;28;20026;-78
2021/03/20 13:30:30;;;;;;;2.78;2.20;;;3.10;51.90;;;;;;5013557;28;20022;-80
2021/03/20 13:32:57;;;;;;;8.27;5.05;;;3.10;49.80;;;;;;5013304;28;20069;-80
2021/03/20 13:35:25;;;;;;;3.22;2.03;;;3.10;49.70;;;;;;5013558;28;20355;-79
2021/03/20 13:37:51;;;;;;;3.28;2.03;;;3.20;50.20;;;;;;5013086;28;20449;-80
2021/03/20 13:40:18;;;;;;;3.22;1.33;;;3.30;48.20;;;;;;5008045;28;20030;-78
2021/03/20 13:42:43;;;;;;;2.63;1.98;;;3.40;49.00;;;;;;5013053;28;20054;-79